オークランド国際空港の過去48時間の天気

オークランド国際空港 (Auckland Airport)

現在時刻: 10/2 03:55 NZDT (10/1 14:55 UTC) 以下の時間は現地時間です。

過去48時間のMETAR気象情報
時間 風向 風速(m/s) 視程 気温(℃) 湿度(%) 気圧(hPa) 天気現象
2 03:30 北東 1 3200m 9 93 1029 散在した霧
2 03:00 静穏 0 10km以上 9 87 1029
2 02:30 北北西 1 10km以上 9 87 1029
2 02:00 北北東 1 10km以上 10 82 1029
2 01:30 東北東 1 10km以上 10 82 1029
2 01:00 東南東 2 10km以上 10 87 1029
2 00:30 東南東 1 10km以上 10 87 1029
2 00:00 東南東 2 10km以上 10 87 1030
1 23:30 東南東 2 10km以上 11 82 1029
1 23:00 2 10km以上 12 82 1029
1 22:30 南南西 3 10km以上 12 82 1029
1 22:00 3 10km以上 11 82 1029
1 21:30 南南西 3 10km以上 12 77 1028
1 21:00 南南西 3 10km以上 12 77 1028
1 20:30 南西 4 10km以上 13 77 1028
1 20:00 南西 4 10km以上 13 72 1027
1 19:30 南南西 4 10km以上 13 67 1027
1 19:00 南南西 5 10km以上 14 63 1027
1 18:30 南西 6 10km以上 15 59 1027
1 18:00 南西 6 10km以上 15 63 1026
1 17:30 南西 6 10km以上 16 59 1026
1 17:00 南西 6 10km以上 16 59 1026
1 16:30 西南西 5 10km以上 16 59 1026
1 16:00 西南西 5 10km以上 16 55 1026
1 15:30 西南西 5 10km以上 16 55 1026
1 15:00 南西 4 10km以上 16 55 1026
1 14:30 南西 4 10km以上 16 59 1026
1 14:00 南西 4 10km以上 15 59 1026
1 13:30 西南西 4 10km以上 15 63 1026
1 13:00 西南西 4 10km以上 15 59 1027
1 12:30 西南西 4 10km以上 15 63 1027
1 12:00 南西 2 10km以上 14 59 1027
1 11:30 南西 2 10km以上 14 59 1027
1 11:00 南西 3 10km以上 13 72 1027
1 10:30 南南西 2 10km以上 12 71 1026
1 10:00 南西 2 10km以上 12 77 1026
1 09:30 南西 2 10km以上 11 82 1026
1 09:00 南南西 2 10km以上 10 87 1026
1 08:30 1 10km以上 9 93 1025
1 08:00 東南東 1 10km以上 7 100 1025
1 07:30 1 10km以上 6 100 1025
1 07:00 1 10km以上 6 93 1024
1 06:30 北北西 1 10km以上 6 93 1024
1 06:00 東南東 2 10km以上 7 93 1024
1 05:30 1 10km以上 7 93 1023
1 05:00 東北東 2 10km以上 6 93 1023
1 04:30 北東 1 10km以上 8 93 1023
1 04:00 東北東 1 10km以上 8 87 1023
1 03:30 南東 1 10km以上 9 93 1023
1 03:00 1 10km以上 9 87 1023
1 02:30 南南東 1 10km以上 9 87 1023
1 02:00 東南東 1 10km以上 9 87 1023
1 01:30 1 10km以上 9 81 1023
1 01:00 南南西 3 10km以上 10 76 1023
1 00:30 2 10km以上 10 82 1022
1 00:00 南東 2 10km以上 10 82 1022
30 23:30 4 10km以上 11 76 1022
30 23:00 南西 5 10km以上 12 71 1022
30 22:30 南西 5 10km以上 12 71 1022
30 22:00 南西 4 10km以上 11 76 1021
30 21:30 南南西 4 10km以上 11 76 1021
30 21:00 南南西 5 10km以上 12 71 1021
30 20:30 南南西 4 10km以上 12 67 1020
30 20:00 南西 6 10km以上 12 67 1020
30 19:30 南南西 6 10km以上 12 67 1020
30 19:00 南西 6 10km以上 13 62 1019
30 18:30 南西 7 10km以上 13 62 1019
30 18:00 南西 7 10km以上 14 59 1019
30 17:30 南西 7 10km以上 14 59 1018
30 17:00 南西 7 10km以上 14 59 1018
30 16:30 南西 7 10km以上 15 59 1018
30 16:00 南西 8 10km以上 15 55 1018
30 15:30 南西 8 10km以上 15 63 1018
30 15:00 南西 8 10km以上 14 63 1018
30 14:30 南西 8 10km以上 15 59 1018
30 14:00 南西 8 10km以上 14 63 1018
30 13:30 南西 8 10km以上 15 59 1018
30 13:00 南西 8 10km以上 14 63 1018
30 12:30 南南西 7 10km以上 15 59 1018
30 12:00 南西 9 10km以上 14 63 1018
30 11:30 南西 8 10km以上 14 63 1018
30 11:00 南西 5 10km以上 12 77 1018 弱い雨
30 10:30 南西 4 10km以上 11 76 1018 弱い雨
30 10:00 南南西 7 10km以上 12 67 1018
30 09:30 西南西 6 10km以上 12 71 1017
30 09:00 西南西 6 10km以上 11 82 1017
30 08:30 南西 6 10km以上 11 71 1017
30 08:00 南西 8 10km以上 11 76 1016
30 07:30 西 5 10km以上 10 82 1016
30 07:00 西南西 5 10km以上 10 82 1015
30 06:30 西南西 6 10km以上 10 76 1015
30 06:00 西南西 7 10km以上 10 82 1015 弱い雨
30 05:30 西南西 6 10km以上 10 82 1015 弱い雨
30 05:00 西 7 10km以上 10 87 1014 弱い雨
30 04:30 西南西 8 9000m 10 82 1014 弱い雨
30 04:00 西南西 7 10km以上 10 82 1014
NZAA 011430Z AUTO 05001KT 3200 BCFG NCD 09/08 Q1029 BECMG 9999 NSW
NZAA 011400Z AUTO 00000KT 9999 NCD 09/07 Q1029 NOSIG
NZAA 011330Z AUTO 33001KT 9999 NCD 09/07 Q1029 NOSIG
NZAA 011300Z AUTO 03001KT 9999 NCD 10/07 Q1029 NOSIG
NZAA 011230Z AUTO 06002KT 9999 NCD 10/07 Q1029 NOSIG
NZAA 011200Z AUTO 11003KT 9999 NCD 10/08 Q1029 NOSIG
NZAA 011130Z AUTO 12002KT 9999 NCD 10/08 Q1029 NOSIG
NZAA 011100Z AUTO 11003KT 9999 NCD 10/08 Q1030 NOSIG
NZAA 011030Z AUTO 11004KT 9999 NCD 11/08 Q1029 NOSIG
NZAA 011000Z AUTO 19004KT 9999 NCD 12/09 Q1029 NOSIG
NZAA 010930Z AUTO 21006KT 9999 NCD 12/09 Q1029 NOSIG
NZAA 010900Z AUTO 19005KT 9999 NCD 11/08 Q1029 NOSIG
NZAA 010830Z AUTO 20005KT 9999 NCD 12/08 Q1028 NOSIG
NZAA 010800Z AUTO 21006KT 9999 FEW045/// 12/08 Q1028 NOSIG
NZAA 010730Z AUTO 22007KT 9999 BKN049/// 13/09 Q1028 NOSIG
NZAA 010700Z AUTO 22007KT 9999 SCT049/// 13/08 Q1027 NOSIG
NZAA 010630Z AUTO 21007KT 9999 FEW060/// 13/07 Q1027 BECMG FM0700 14005KT
NZAA 010600Z AUTO 21009KT 9999 NCD 14/07 Q1027 BECMG FM0700 14005KT
NZAA 010530Z AUTO 23011KT 9999 FEW060/// 15/07 Q1027 BECMG FM0700 15005KT
NZAA 010500Z AUTO 23011KT 9999 NCD 15/08 Q1026 NOSIG
NZAA 010430Z AUTO 23011KT 9999 NCD 16/08 Q1026 NOSIG
NZAA 010400Z AUTO 23011KT 9999 NCD 16/08 Q1026 NOSIG
NZAA 010330Z AUTO 24009KT 9999 NCD 16/08 Q1026 NOSIG
NZAA 010300Z AUTO 24009KT 9999 NCD 16/07 Q1026 NOSIG
NZAA 010230Z AUTO 25009KT 9999 NCD 16/07 Q1026 NOSIG
NZAA 010200Z AUTO 23007KT 200V260 9999 NCD 16/07 Q1026 NOSIG
NZAA 010130Z AUTO 23007KT 9999 NCD 16/08 Q1026 NOSIG
NZAA 010100Z AUTO 23007KT 9999 NCD 15/07 Q1026 NOSIG
NZAA 010030Z AUTO 24007KT 9999 NCD 15/08 Q1026 NOSIG
NZAA 010000Z AUTO 24008KT 9999 NCD 15/07 Q1027 NOSIG
NZAA 302330Z AUTO 24007KT 9999 NCD 15/08 Q1027 NOSIG
NZAA 302300Z AUTO 23004KT 190V250 9999 NCD 14/06 Q1027 NOSIG
NZAA 302230Z AUTO 22004KT 190V260 9999 NCD 14/06 Q1027 NOSIG
NZAA 302200Z AUTO 22005KT 180V250 9999 NCD 13/08 Q1027 NOSIG
NZAA 302130Z AUTO 21004KT 9999 NCD 12/07 Q1026 NOSIG
NZAA 302100Z AUTO 22004KT 180V240 9999 NCD 12/08 Q1026 NOSIG
NZAA 302030Z AUTO 22004KT 190V250 9999 NCD 11/08 Q1026 NOSIG
NZAA 302000Z AUTO 21003KT 9999 NCD 10/08 Q1026 NOSIG
NZAA 301930Z AUTO 17002KT 9999 NCD 09/08 Q1025 NOSIG
NZAA 301900Z AUTO 12002KT 9999 NCD 07/07 Q1025 NOSIG
NZAA 301830Z AUTO 19001KT 9999 NCD 06/06 Q1025 NOSIG
NZAA 301800Z AUTO 36001KT 9999 NCD 06/05 Q1024 NOSIG
NZAA 301730Z AUTO 33001KT 9999 NCD 06/05 Q1024 NOSIG
NZAA 301700Z AUTO 12003KT 9999 NCD 07/06 Q1024 NOSIG
NZAA 301630Z AUTO 10001KT 9999 NCD 07/06 Q1023 NOSIG
NZAA 301600Z AUTO 07003KT 9999 NCD 06/05 Q1023 NOSIG
NZAA 301530Z AUTO 04002KT 9999 FEW030/// 08/07 Q1023 NOSIG
NZAA 301500Z AUTO 06002KT 9999 FEW032/// 08/06 Q1023 NOSIG
NZAA 301430Z AUTO 13002KT 9999 SCT030/// 09/08 Q1023 NOSIG
NZAA 301400Z AUTO 18002KT 9999 NCD 09/07 Q1023 NOSIG
NZAA 301330Z AUTO 15001KT 9999 NCD 09/07 Q1023 NOSIG
NZAA 301300Z AUTO 12002KT 9999 NCD 09/07 Q1023 NOSIG
NZAA 301230Z AUTO 19002KT 9999 FEW031/// 09/06 Q1023 NOSIG
NZAA 301200Z AUTO 21005KT 9999 NCD 10/06 Q1023 NOSIG
NZAA 301130Z AUTO 17004KT 9999 FEW030/// 10/07 Q1022 NOSIG
NZAA 301100Z AUTO 13004KT 9999 NCD 10/07 Q1022 BECMG 16005KT
NZAA 301030Z AUTO 19008KT 9999 NCD 11/07 Q1022 BECMG 16005KT
NZAA 301000Z AUTO 22010KT 9999 NCD 12/07 Q1022 BECMG 16005KT
NZAA 300930Z AUTO 22010KT 9999 NCD 12/07 Q1022 BECMG 16005KT
NZAA 300900Z AUTO 22008KT 9999 NCD 11/07 Q1021 NOSIG
NZAA 300830Z AUTO 20007KT 9999 NCD 11/07 Q1021 NOSIG
NZAA 300800Z AUTO 21009KT 9999 FEW047/// 12/07 Q1021 NOSIG
NZAA 300730Z AUTO 21008KT 9999 NCD 12/06 Q1020 NOSIG
NZAA 300700Z AUTO 22011KT 9999 NCD 12/06 Q1020 BECMG 16005KT
NZAA 300630Z AUTO 21012KT 9999 SCT032/// 12/06 Q1020 BECMG FM0700 16005KT
NZAA 300600Z AUTO 22011KT 9999 FEW033/// 13/06 Q1019 BECMG 16005KT
NZAA 300530Z AUTO 22013KT 9999 NCD 13/06 Q1019 NOSIG
NZAA 300500Z AUTO 22013KT 9999 NCD 14/06 Q1019 NOSIG
NZAA 300430Z AUTO 22014KT 9999 NCD 14/06 Q1018 NOSIG
NZAA 300400Z AUTO 22013KT 9999 SCT035/// BKN049/// 14/06 Q1018 NOSIG
NZAA 300330Z AUTO 22014KT 9999 FEW035/// SCT046/// 15/07 Q1018 NOSIG
NZAA 300300Z AUTO 22015KT 9999 FEW029/// 15/06 Q1018 NOSIG
NZAA 300230Z AUTO 22016KT 9999 SCT055/// 15/08 Q1018 NOSIG
NZAA 300200Z AUTO 23016KT 9999 FEW055/// 14/07 Q1018 NOSIG
NZAA 300130Z AUTO 23016KT 9999 NCD 15/07 Q1018 NOSIG
NZAA 300100Z AUTO 23015KT 9999 FEW038/// SCT047/// 14/07 Q1018 NOSIG
NZAA 300030Z AUTO 23015KT 9999 FEW041/// SCT048/// 15/07 Q1018 NOSIG
NZAA 300000Z AUTO 23016KT 9999 FEW042/// 14/07 Q1018 NOSIG
NZAA 292330Z AUTO 21014KT 9999 NCD 15/07 Q1018 NOSIG
NZAA 292300Z AUTO 23017KT 9999 NCD 14/07 Q1018 NOSIG
NZAA 292230Z AUTO 23016KT 9999 FEW037/// 14/07 Q1018 NOSIG
NZAA 292200Z AUTO 23010KT 9999 -RA FEW037/// BKN060/// 12/08 Q1018 NOSIG
NZAA 292130Z AUTO 22008KT 9999 -RA FEW034/// BKN050/// 11/07 Q1018 NOSIG
NZAA 292100Z AUTO 20013KT 9999 SCT034/// BKN047/// 12/06 Q1018 NOSIG
NZAA 292030Z AUTO 24011KT 9999 FEW031/// BKN046/// BKN060/// 12/07 Q1017 NOSIG
NZAA 292000Z AUTO 25011KT 9999 FEW029/// SCT045/// OVC060/// 11/08 Q1017 NOSIG
NZAA 291930Z AUTO 23011KT 9999 SCT047/// BKN055/// BKN070/// 11/06 Q1017 TEMPO TL2000 6000 SHRA
NZAA 291900Z AUTO 22016KT 9999 FEW039/// 11/07 Q1016 TEMPO TL2000 6000 SHRA
NZAA 291830Z AUTO 26009KT 9999 FEW047/// BKN065/// 10/07 Q1016 TEMPO TL2000 6000 SHRA
NZAA 291800Z AUTO 25009KT 9999 FEW025/// SCT033/// BKN042/// 10/07 Q1015 TEMPO 6000 SHRA
NZAA 291730Z AUTO 25012KT 9999 FEW040/// SCT065/// 10/06 Q1015 TEMPO 6000 SHRA
NZAA 291700Z AUTO 24014KT 9999 -RA FEW029/// BKN049/// BKN060/// 10/07 Q1015 TEMPO 6000 SHRA
NZAA 291630Z AUTO 25011KT 9999 -RA FEW025/// BKN060/// 10/07 Q1015 TEMPO 6000 SHRA
NZAA 291600Z AUTO 26014KT 9999 -RA SCT028/// BKN035/// BKN049/// 10/08 Q1014 TEMPO 6000 SHRA
NZAA 291530Z AUTO 25015KT 9000 -RA FEW029/// SCT036/// BKN055/// 10/07 Q1014 TEMPO 6000 SHRA
NZAA 291500Z AUTO 25013KT 9999 FEW048/// BKN055/// 10/07 Q1014 TEMPO 6000 SHRA